Time;durP1;ratioP1;P1;durP2;ratioP2;P2;SDS_P1;SDS_P2;PMS_P1;PMS_P2;Temp;Humidity;BMP_temperature;BMP_pressure;BME280_temperature;BME280_humidity;BME280_pressure;Samples;Min_cycle;Max_cycle;Signal;HPM_P1;HPM_P2
2024/03/25 00:00:41;;;;;;;20.67;6.10;;;;;;;6.25;100.00;100673.06;5080976;28;20031;-67
2024/03/25 00:03:29;;;;;;;23.17;5.80;;;;;;;6.22;100.00;100670.84;5071002;28;20058;-66
2024/03/25 00:06:16;;;;;;;22.15;5.68;;;;;;;6.22;100.00;100667.34;5097494;28;20051;-65
2024/03/25 00:09:04;;;;;;;16.73;5.05;;;;;;;6.21;100.00;100669.22;5096238;28;20533;-65
2024/03/25 00:11:54;;;;;;;21.55;5.65;;;;;;;6.22;100.00;100668.16;5078503;28;20067;-67
2024/03/25 00:14:41;;;;;;;20.58;5.78;;;;;;;6.21;100.00;100657.59;5097590;28;20050;-67
2024/03/25 00:17:28;;;;;;;23.67;5.60;;;;;;;6.22;100.00;100668.16;5053376;28;20499;-66
2024/03/25 00:20:15;;;;;;;21.98;5.28;;;;;;;6.19;100.00;100674.88;5097391;28;20036;-66
2024/03/25 00:23:03;;;;;;;22.77;5.53;;;;;;;6.19;100.00;100668.66;5075903;28;20078;-66
2024/03/25 00:25:50;;;;;;;23.58;5.25;;;;;;;6.17;100.00;100665.34;5076273;28;20079;-66
2024/03/25 00:28:38;;;;;;;21.38;6.20;;;;;;;6.16;100.00;100667.25;5076539;28;20047;-66
2024/03/25 00:31:25;;;;;;;22.52;5.78;;;;;;;6.15;100.00;100668.28;5093877;28;20056;-66
2024/03/25 00:34:12;;;;;;;19.88;5.97;;;;;;;6.15;100.00;100659.38;5077300;28;20507;-66
2024/03/25 00:37:03;;;;;;;20.10;5.63;;;;;;;6.14;100.00;100663.97;5086821;28;20047;-66
2024/03/25 00:39:50;;;;;;;21.33;5.35;;;;;;;6.13;100.00;100661.50;5081132;28;20090;-66
2024/03/25 00:42:38;;;;;;;21.63;5.35;;;;;;;6.09;100.00;100666.56;5068548;28;20044;-67
2024/03/25 00:45:30;;;;;;;20.55;5.72;;;;;;;6.07;100.00;100670.59;5082737;28;20068;-67
2024/03/25 00:48:17;;;;;;;17.05;5.35;;;;;;;6.06;100.00;100672.47;5083221;28;20472;-67
2024/03/25 00:51:04;;;;;;;19.80;5.53;;;;;;;6.04;100.00;100663.78;5076254;28;20110;-66
2024/03/25 00:53:52;;;;;;;25.13;6.10;;;;;;;6.04;100.00;100652.13;5101854;28;20036;-66
2024/03/25 00:56:39;;;;;;;27.63;6.28;;;;;;;6.04;100.00;100652.13;5082528;28;20048;-66
2024/03/25 00:59:26;;;;;;;23.08;5.80;;;;;;;6.03;100.00;100650.50;5083061;28;20058;-66
2024/03/25 01:02:13;;;;;;;19.95;5.13;;;;;;;6.02;100.00;100662.38;5082392;28;20054;-67
2024/03/25 01:05:00;;;;;;;25.83;5.85;;;;;;;6.00;100.00;100668.03;5094673;28;20071;-67
2024/03/25 01:07:47;;;;;;;16.77;4.90;;;;;;;5.97;100.00;100666.63;5082466;28;20411;-66
2024/03/25 01:10:35;;;;;;;24.63;5.60;;;;;;;5.94;100.00;100669.81;5103253;28;20073;-66
2024/03/25 01:13:22;;;;;;;21.55;5.88;;;;;;;5.93;100.00;100668.13;5101728;28;20127;-66
2024/03/25 01:16:09;;;;;;;23.15;5.30;;;;;;;5.91;100.00;100667.53;5082111;28;20487;-65
2024/03/25 01:18:58;;;;;;;22.50;5.32;;;;;;;5.90;100.00;100668.63;5083139;28;20043;-66
2024/03/25 01:21:45;;;;;;;22.73;6.28;;;;;;;5.87;100.00;100669.09;5095620;28;20075;-65
2024/03/25 01:24:32;;;;;;;22.63;5.57;;;;;;;5.85;100.00;100671.22;5095631;28;20035;-65
2024/03/25 01:27:19;;;;;;;23.98;5.88;;;;;;;5.83;100.00;100670.63;5096908;28;20047;-67
2024/03/25 01:30:07;;;;;;;21.55;5.43;;;;;;;5.82;100.00;100674.41;5074237;28;20039;-66
2024/03/25 01:32:54;;;;;;;23.02;6.00;;;;;;;5.81;100.00;100670.06;5104400;28;20066;-65
2024/03/25 01:35:41;;;;;;;21.77;5.85;;;;;;;5.82;100.00;100665.47;5099425;28;20069;-67
2024/03/25 01:38:28;;;;;;;18.15;5.53;;;;;;;5.80;100.00;100671.13;5102966;28;20078;-65
2024/03/25 01:41:22;;;;;;;30.23;6.45;;;;;;;5.78;100.00;100670.53;5079360;28;20064;-62
2024/03/25 01:44:09;;;;;;;21.17;5.30;;;;;;;5.79;100.00;100671.34;5067992;28;20036;-61
2024/03/25 01:46:56;;;;;;;25.25;5.75;;;;;;;5.76;100.00;100676.19;5094009;28;20065;-59
2024/03/25 01:49:43;;;;;;;19.27;5.00;;;;;;;5.74;100.00;100680.19;5085522;28;20098;-65
2024/03/25 01:52:31;;;;;;;19.60;5.57;;;;;;;5.70;100.00;100676.31;5113540;27;20076;-67
2024/03/25 01:55:21;;;;;;;21.98;5.85;;;;;;;5.72;100.00;100683.16;5105994;27;20448;-66
2024/03/25 01:58:09;;;;;;;22.60;5.53;;;;;;;5.74;100.00;100675.59;5064191;28;20035;-65
2024/03/25 02:00:56;;;;;;;21.40;5.85;;;;;;;5.75;100.00;100673.72;5080066;28;20040;-66
2024/03/25 02:03:43;;;;;;;19.52;5.40;;;;;;;5.76;100.00;100667.25;5102951;27;20062;-66
2024/03/25 02:06:31;;;;;;;23.35;6.13;;;;;;;5.78;100.00;100662.44;5114489;27;20483;-67
2024/03/25 02:09:19;;;;;;;22.27;5.68;;;;;;;5.75;100.00;100671.03;5101183;27;20395;-66
2024/03/25 02:12:06;;;;;;;19.83;5.05;;;;;;;5.73;100.00;100678.56;5080904;28;20067;-65
2024/03/25 02:14:53;;;;;;;19.80;5.28;;;;;;;5.72;100.00;100671.50;5100234;28;20043;-65
2024/03/25 02:17:40;;;;;;;20.10;5.72;;;;;;;5.72;100.00;100674.19;5067765;28;20114;-67
2024/03/25 02:20:27;;;;;;;19.95;4.60;;;;;;;5.73;100.00;100678.56;5087609;28;20507;-66
2024/03/25 02:23:14;;;;;;;21.60;5.43;;;;;;;5.72;100.00;100680.44;5084395;28;20071;-65
2024/03/25 02:26:01;;;;;;;19.85;4.72;;;;;;;5.70;100.00;100673.59;5072049;28;20071;-66
2024/03/25 02:28:48;;;;;;;18.88;4.90;;;;;;;5.68;100.00;100686.56;5096327;28;20128;-65
2024/03/25 02:31:35;;;;;;;17.95;5.07;;;;;;;5.67;100.00;100668.69;5067433;28;20035;-67
2024/03/25 02:34:22;;;;;;;24.20;5.82;;;;;;;5.64;100.00;100679.97;5084942;28;20074;-66
2024/03/25 02:37:10;;;;;;;19.27;5.05;;;;;;;5.64;100.00;100667.28;5097800;28;20054;-65
2024/03/25 02:39:59;;;;;;;19.40;4.72;;;;;;;5.70;100.00;100666.34;5065025;28;20040;-66
2024/03/25 02:42:46;;;;;;;19.10;5.00;;;;;;;5.68;100.00;100670.34;5051313;28;20035;-66
2024/03/25 02:45:34;;;;;;;21.42;5.63;;;;;;;5.68;100.00;100675.75;5051429;28;20036;-66
2024/03/25 02:48:21;;;;;;;26.52;5.35;;;;;;;5.64;100.00;100664.56;5065081;28;20048;-67
2024/03/25 02:51:08;;;;;;;18.58;4.85;;;;;;;5.66;100.00;100664.34;5062411;28;20518;-67
2024/03/25 02:53:55;;;;;;;16.95;5.15;;;;;;;5.66;100.00;100662.47;5064580;28;20051;-67
2024/03/25 02:56:43;;;;;;;18.10;4.85;;;;;;;5.66;100.00;100661.66;5065036;28;20040;-66
2024/03/25 02:59:30;;;;;;;19.33;5.38;;;;;;;5.69;100.00;100655.75;5078668;28;20469;-66
2024/03/25 03:02:17;;;;;;;16.23;4.78;;;;;;;5.73;100.00;100654.22;5050836;28;20059;-66
2024/03/25 03:05:04;;;;;;;20.73;5.20;;;;;;;5.73;100.00;100654.22;5086272;28;20471;-66
2024/03/25 03:07:51;;;;;;;19.73;5.00;;;;;;;5.70;100.00;100657.38;5084401;28;20131;-66
2024/03/25 03:10:38;;;;;;;19.20;4.70;;;;;;;5.69;100.00;100650.34;5104223;28;20070;-67
2024/03/25 03:13:25;;;;;;;19.02;4.95;;;;;;;5.66;100.00;100650.84;5084271;28;20067;-66
2024/03/25 03:16:12;;;;;;;18.73;5.20;;;;;;;5.66;100.00;100656.25;5097617;28;20075;-67
2024/03/25 03:18:59;;;;;;;23.52;5.40;;;;;;;5.64;100.00;100652.94;5083206;28;20035;-67
2024/03/25 03:21:46;;;;;;;17.95;5.10;;;;;;;5.69;100.00;100653.06;5082140;28;20071;-66
2024/03/25 03:24:33;;;;;;;21.65;5.10;;;;;;;5.70;100.00;100647.41;5098206;28;20039;-66
2024/03/25 03:27:20;;;;;;;19.15;5.22;;;;;;;5.71;100.00;100649.03;5085468;28;20438;-65
2024/03/25 03:30:07;;;;;;;26.17;5.22;;;;;;;5.71;100.00;100642.81;5083282;28;20039;-66
2024/03/25 03:32:54;;;;;;;17.10;4.93;;;;;;;5.70;100.00;100642.00;5078692;28;20047;-66
2024/03/25 03:35:42;;;;;;;17.27;4.85;;;;;;;5.72;100.00;100648.00;5078571;28;20058;-66
2024/03/25 03:38:29;;;;;;;16.98;4.65;;;;;;;5.71;100.00;100632.00;5077041;28;20046;-66
2024/03/25 03:41:16;;;;;;;21.63;5.47;;;;;;;5.65;100.00;100633.81;5095988;28;20491;-66
2024/03/25 03:44:03;;;;;;;18.63;5.35;;;;;;;5.62;100.00;100636.97;5057322;28;20043;-66
2024/03/25 03:46:50;;;;;;;18.00;5.10;;;;;;;5.59;100.00;100633.94;5098293;28;20105;-66
2024/03/25 03:49:37;;;;;;;19.55;5.05;;;;;;;5.57;100.00;100630.66;5092212;28;20483;-66
2024/03/25 03:52:24;;;;;;;18.63;5.13;;;;;;;5.55;100.00;100636.28;5095958;28;20071;-66
2024/03/25 03:55:11;;;;;;;18.23;5.70;;;;;;;5.52;100.00;100634.88;5098273;28;20051;-66
2024/03/25 03:57:58;;;;;;;21.33;5.20;;;;;;;5.50;100.00;100645.09;5097801;28;20047;-66
2024/03/25 04:00:45;;;;;;;16.70;4.95;;;;;;;5.49;100.00;100646.19;5097519;28;20123;-66
2024/03/25 04:03:32;;;;;;;16.27;5.10;;;;;;;5.49;100.00;100643.47;5097870;28;20083;-65
2024/03/25 04:06:19;;;;;;;19.40;5.20;;;;;;;5.50;100.00;100630.78;5071425;28;20043;-66
2024/03/25 04:09:09;;;;;;;20.17;4.95;;;;;;;5.47;100.00;100632.06;5093590;27;20451;-65
2024/03/25 04:11:56;;;;;;;21.35;5.55;;;;;;;5.43;100.00;100641.72;5081570;28;20046;-66
2024/03/25 04:14:43;;;;;;;16.60;4.63;;;;;;;5.41;100.00;100643.84;5096901;28;20403;-66
2024/03/25 04:17:31;;;;;;;16.13;4.80;;;;;;;5.39;100.00;100645.97;5096513;28;20054;-66
2024/03/25 04:20:18;;;;;;;16.98;5.22;;;;;;;5.36;100.00;100641.03;5084317;28;20122;-67
2024/03/25 04:23:07;;;;;;;19.38;5.40;;;;;;;5.37;100.00;100636.47;5097066;28;20043;-66
2024/03/25 04:25:54;;;;;;;20.38;5.43;;;;;;;5.36;100.00;100635.63;5079222;28;20097;-67
2024/03/25 04:28:41;;;;;;;23.48;5.35;;;;;;;5.36;100.00;100635.63;5064637;28;20503;-66
2024/03/25 04:31:27;;;;;;;16.75;4.85;;;;;;;5.35;100.00;100634.00;5075987;28;20032;-67
2024/03/25 04:34:14;;;;;;;20.40;5.25;;;;;;;5.35;100.00;100628.59;5076827;28;20506;-65
2024/03/25 04:37:01;;;;;;;17.15;5.00;;;;;;;5.37;100.00;100629.16;5087630;28;20039;-67
2024/03/25 04:39:48;;;;;;;23.00;5.72;;;;;;;5.36;100.00;100635.63;5081820;28;20434;-65
2024/03/25 04:42:39;;;;;;;19.13;5.40;;;;;;;5.37;100.00;100636.47;5078342;28;20039;-66
2024/03/25 04:45:26;;;;;;;19.90;5.32;;;;;;;5.38;100.00;100636.19;5068501;28;20488;-66
2024/03/25 04:48:13;;;;;;;17.45;4.43;;;;;;;5.37;100.00;100637.28;5073160;28;20083;-67
2024/03/25 04:51:00;;;;;;;16.83;5.25;;;;;;;5.40;100.00;100634.09;5096062;28;20073;-65
2024/03/25 04:53:47;;;;;;;19.48;4.65;;;;;;;5.41;100.00;100638.44;5083243;28;20551;-66
2024/03/25 04:56:34;;;;;;;19.45;5.35;;;;;;;5.41;100.00;100638.44;5096260;28;20036;-66
2024/03/25 04:59:21;;;;;;;15.95;4.95;;;;;;;5.40;100.00;100639.50;5093621;28;20138;-65
2024/03/25 05:02:08;;;;;;;17.60;5.40;;;;;;;5.36;100.00;100630.22;5101239;28;20118;-65
2024/03/25 05:04:55;;;;;;;21.77;5.47;;;;;;;5.31;100.00;100635.50;5096974;28;20047;-66
2024/03/25 05:07:42;;;;;;;18.67;5.65;;;;;;;5.27;100.00;100637.06;5062107;28;20044;-66
2024/03/25 05:10:29;;;;;;;17.00;5.43;;;;;;;5.23;100.00;100642.09;5081229;28;20043;-67
2024/03/25 05:13:16;;;;;;;14.43;5.07;;;;;;;5.19;100.00;100650.91;5092659;28;20039;-66
2024/03/25 05:16:03;;;;;;;17.42;4.90;;;;;;;5.18;100.00;100649.28;5074073;28;20048;-69
2024/03/25 05:18:50;;;;;;;19.08;5.72;;;;;;;5.16;100.00;100649.50;5063359;28;20067;-65
2024/03/25 05:21:37;;;;;;;18.23;5.90;;;;;;;5.18;100.00;100660.09;5075628;28;20043;-65
2024/03/25 05:24:24;;;;;;;19.58;5.45;;;;;;;5.17;100.00;100658.44;5062002;28;20476;-67
2024/03/25 05:27:11;;;;;;;17.00;5.35;;;;;;;5.17;100.00;100661.97;5077553;28;20138;-66
2024/03/25 05:29:58;;;;;;;20.35;5.63;;;;;;;5.17;100.00;100663.81;5099841;28;20051;-66
2024/03/25 05:32:45;;;;;;;19.80;6.38;;;;;;;5.15;100.00;100665.94;5078656;28;20052;-66
2024/03/25 05:35:36;;;;;;;17.98;6.43;;;;;;;5.16;100.00;100671.13;5071882;28;20039;-66
2024/03/25 05:38:23;;;;;;;18.33;5.82;;;;;;;5.20;100.00;100668.78;5101203;28;20069;-64
2024/03/25 05:41:10;;;;;;;16.08;6.15;;;;;;;5.19;100.00;100667.13;5103093;28;20372;-66
2024/03/25 05:43:57;;;;;;;18.05;6.10;;;;;;;5.20;100.00;100668.78;5082123;28;20075;-67
2024/03/25 05:46:44;;;;;;;16.05;6.03;;;;;;;5.24;100.00;100664.53;5096925;28;20040;-65
2024/03/25 05:49:31;;;;;;;18.42;6.20;;;;;;;5.27;100.00;100667.59;5083030;28;20184;-66
2024/03/25 05:52:18;;;;;;;20.80;6.63;;;;;;;5.25;100.00;100669.72;5081231;28;20105;-65
2024/03/25 05:55:05;;;;;;;21.02;6.60;;;;;;;5.23;100.00;100665.59;5085887;28;20070;-64
2024/03/25 05:57:52;;;;;;;16.90;6.03;;;;;;;5.21;100.00;100660.41;5073217;28;20086;-66
2024/03/25 06:00:40;;;;;;;19.80;7.95;;;;;;;5.22;100.00;100661.25;5098094;28;20048;-66
2024/03/25 06:03:27;;;;;;;19.30;6.80;;;;;;;5.24;100.00;100659.13;5091860;28;20456;-66
2024/03/25 06:06:14;;;;;;;16.88;6.82;;;;;;;5.23;100.00;100660.19;5102805;27;20104;-64
2024/03/25 06:09:02;;;;;;;15.85;6.82;;;;;;;5.19;100.00;100650.91;5114892;27;20043;-61
2024/03/25 06:11:49;;;;;;;20.10;7.15;;;;;;;5.16;100.00;100651.41;5096628;27;20391;-64
2024/03/25 06:14:43;;;;;;;18.85;7.05;;;;;;;5.17;100.00;100650.31;5110720;28;20047;-65
2024/03/25 06:17:32;;;;;;;16.00;7.18;;;;;;;5.19;100.00;100650.91;5072267;28;20035;-65
2024/03/25 06:20:20;;;;;;;22.98;7.28;;;;;;;5.17;100.00;100653.88;5053154;28;20541;-66
2024/03/25 06:23:07;;;;;;;21.58;7.90;;;;;;;5.20;100.00;100652.56;5090701;28;20028;-65
2024/03/25 06:25:55;;;;;;;21.05;7.85;;;;;;;5.22;100.00;100650.44;5082988;28;20529;-66
2024/03/25 06:28:42;;;;;;;19.35;8.20;;;;;;;5.22;100.00;100648.56;5107573;28;20084;-67
2024/03/25 06:34:35;;;;;;;21.73;8.45;;;;;;;5.23;100.00;100650.22;5084117;28;20051;-65
2024/03/25 06:37:23;;;;;;;21.77;8.07;;;;;;;5.22;100.00;100647.72;5096795;28;20368;-66
2024/03/25 06:40:11;;;;;;;19.65;8.35;;;;;;;5.20;100.00;100642.59;5099492;28;20040;-65
2024/03/25 06:42:58;;;;;;;22.35;8.45;;;;;;;5.22;100.00;100636.94;4369347;28;10000796;-64
2024/03/25 06:45:45;;;;;;;19.33;7.93;;;;;;;5.25;100.00;100633.78;5064000;28;20044;-66
2024/03/25 06:48:32;;;;;;;22.92;8.77;;;;;;;5.26;100.00;100632.72;5080145;28;20090;-66
2024/03/25 06:51:19;;;;;;;19.60;9.15;;;;;;;5.26;100.00;100630.81;5096098;28;20078;-66
2024/03/25 06:54:07;;;;;;;24.05;9.65;;;;;;;5.27;100.00;100637.06;5079355;28;20040;-66
2024/03/25 06:56:54;;;;;;;17.60;8.00;;;;;;;5.31;100.00;100635.50;5073778;28;20051;-66
2024/03/25 06:59:41;;;;;;;20.60;9.00;;;;;;;5.33;100.00;100638.81;5066826;28;21748;-66
2024/03/25 07:02:28;;;;;;;20.77;9.38;;;;;;;5.29;100.00;100638.47;5079382;28;20079;-66
2024/03/25 07:05:15;;;;;;;18.15;8.18;;;;;;;5.33;100.00;100641.50;5077487;28;20039;-65
2024/03/25 07:08:03;;;;;;;24.92;9.52;;;;;;;5.26;100.00;100646.22;5094682;28;20376;-67
2024/03/25 07:10:49;;;;;;;18.83;9.05;;;;;;;5.17;100.00;100642.22;5095415;28;20069;-66
2024/03/25 07:13:36;;;;;;;20.02;9.25;;;;;;;5.12;100.00;100641.06;5081399;28;20040;-66
2024/03/25 07:16:23;;;;;;;20.35;9.93;;;;;;;5.12;100.00;100640.22;5061269;28;20039;-66
2024/03/25 07:19:10;;;;;;;26.65;10.65;;;;;;;5.13;100.00;100637.31;5076214;28;20051;-68
2024/03/25 07:21:57;;;;;;;21.25;10.15;;;;;;;5.13;100.00;100640.00;5047339;28;20047;-67
2024/03/25 07:24:44;;;;;;;23.40;10.80;;;;;;;5.15;100.00;100634.38;5076650;28;20432;-68
2024/03/25 07:27:31;;;;;;;20.40;9.10;;;;;;;5.26;100.00;100632.72;5080468;28;20079;-66
2024/03/25 07:30:19;;;;;;;19.83;8.48;;;;;;;5.32;100.00;100627.19;5065318;28;20370;-66
2024/03/25 07:33:06;;;;;;;15.00;7.85;;;;;;;5.39;100.00;100631.63;5079678;28;20104;-67
2024/03/25 07:35:54;;;;;;;14.77;8.13;;;;;;;5.44;100.00;100634.44;5094379;28;20075;-66
2024/03/25 07:38:42;;;;;;;16.38;8.27;;;;;;;5.48;100.00;100635.59;5060777;28;20444;-67
2024/03/25 07:41:31;;;;;;;19.65;8.60;;;;;;;5.51;100.00;100630.56;5078330;28;20044;-67
2024/03/25 07:44:17;;;;;;;20.45;8.07;;;;;;;5.55;100.00;100629.00;5068520;28;20039;-67
2024/03/25 07:47:04;;;;;;;21.23;8.25;;;;;;;5.61;100.00;100626.41;5082460;28;20127;-67
2024/03/25 07:49:51;;;;;;;16.52;7.85;;;;;;;5.64;100.00;100625.94;5097116;28;20090;-68
2024/03/25 07:52:40;;;;;;;15.75;7.68;;;;;;;5.67;100.00;100626.25;5082243;28;20048;-67
2024/03/25 07:55:27;;;;;;;15.43;8.00;;;;;;;5.71;100.00;100627.41;5086694;28;20074;-65
2024/03/25 07:58:14;;;;;;;15.93;7.45;;;;;;;5.73;100.00;100635.31;5084576;28;20114;-67
2024/03/25 08:01:01;;;;;;;14.73;7.40;;;;;;;5.76;100.00;100640.22;5097628;28;20047;-68
2024/03/25 08:03:48;;;;;;;13.93;6.50;;;;;;;5.81;100.00;100639.50;5097868;28;20055;-67
2024/03/25 08:06:35;;;;;;;16.27;7.00;;;;;;;5.84;100.00;100639.81;5078074;28;20100;-66
2024/03/25 08:09:22;;;;;;;17.75;6.93;;;;;;;5.88;100.00;100640.19;5039789;28;20044;-67
2024/03/25 08:12:09;;;;;;;15.55;6.55;;;;;;;5.94;100.00;100644.63;5078723;28;20416;-67
2024/03/25 08:14:56;;;;;;;13.50;6.60;;;;;;;5.95;100.00;100649.81;5053856;28;20036;-67
2024/03/25 08:17:43;;;;;;;14.10;6.68;;;;;;;5.98;100.00;100635.81;5042915;28;20052;-68
2024/03/25 08:20:30;;;;;;;17.50;7.00;;;;;;;6.01;100.00;100636.38;5074756;28;20073;-67
2024/03/25 08:23:17;;;;;;;14.23;6.85;;;;;;;6.03;100.00;100645.91;5082180;28;20052;-68
2024/03/25 08:26:04;;;;;;;13.82;6.30;;;;;;;6.08;100.00;100645.16;5067272;28;20121;-67
2024/03/25 08:28:51;;;;;;;14.55;6.32;;;;;;;6.10;100.00;100645.75;5064993;28;20389;-67
2024/03/25 08:31:38;;;;;;;14.35;6.10;;;;;;;6.15;100.00;100653.97;5097014;28;20055;-68
2024/03/25 08:34:25;;;;;;;14.70;6.90;;;;;;;6.18;100.00;100648.06;5092565;28;20046;-67
2024/03/25 08:37:12;;;;;;;18.48;7.40;;;;;;;6.23;100.00;100648.16;5082612;28;20039;-67
2024/03/25 08:39:59;;;;;;;15.75;6.53;;;;;;;6.26;100.00;100639.56;5092544;28;20101;-68
2024/03/25 08:42:46;;;;;;;14.68;6.38;;;;;;;6.28;100.00;100632.03;5082831;28;20094;-68
2024/03/25 08:45:33;;;;;;;16.83;7.70;;;;;;;6.34;100.00;100635.63;5057914;28;20075;-68
2024/03/25 08:48:20;;;;;;;18.85;7.22;;;;;;;6.35;100.00;100638.09;5083493;28;20048;-68
2024/03/25 08:51:07;;;;;;;15.75;7.18;;;;;;;6.37;100.00;100633.28;5097694;28;20040;-67
2024/03/25 08:53:54;;;;;;;15.52;7.65;;;;;;;6.38;100.00;100629.47;5083971;28;20449;-68
2024/03/25 08:56:41;;;;;;;16.45;7.93;;;;;;;6.40;100.00;100627.34;5097367;28;20047;-68
2024/03/25 08:59:28;;;;;;;17.73;7.30;;;;;;;6.45;100.00;100625.81;5082601;28;20460;-68
2024/03/25 09:02:15;;;;;;;15.38;7.68;;;;;;;6.48;100.00;100626.13;5083811;28;20399;-67
2024/03/25 09:05:08;;;;;;;14.70;7.47;;;;;;;6.52;100.00;100632.69;5089020;28;20050;-69
2024/03/25 09:07:55;;;;;;;19.40;8.35;;;;;;;6.57;100.00;100621.13;5087168;28;20369;-67
2024/03/25 09:11:07;;;;;;;17.67;8.48;;;;;;;6.59;100.00;100632.50;5064657;28;20044;-67
2024/03/25 09:13:53;;;;;;;17.58;7.63;;;;;;;6.63;100.00;100630.97;5058439;28;20036;-67
2024/03/25 09:16:40;;;;;;;17.52;7.45;;;;;;;6.66;100.00;100630.47;5067949;28;20070;-67
2024/03/25 09:19:27;;;;;;;18.98;9.07;;;;;;;6.68;100.00;100627.50;5087356;28;20067;-67
2024/03/25 09:22:14;;;;;;;21.98;9.50;;;;;;;6.77;100.00;100628.75;5097479;28;20043;-68
2024/03/25 09:25:02;;;;;;;21.98;10.38;;;;;;;6.80;100.00;100623.66;5099741;28;20808;-67
2024/03/25 09:27:50;;;;;;;18.88;9.80;;;;;;;6.90;100.00;100619.44;5086207;28;20051;-68
2024/03/25 09:30:37;;;;;;;21.02;9.00;;;;;;;6.96;100.00;100613.06;5079682;28;20047;-67
2024/03/25 09:33:24;;;;;;;19.80;9.65;;;;;;;6.99;100.00;100610.66;5085174;28;20067;-67
2024/03/25 09:36:11;;;;;;;20.42;10.00;;;;;;;6.99;100.00;100609.84;5106352;28;20047;-68
2024/03/25 09:38:58;;;;;;;24.35;10.60;;;;;;;7.06;100.00;100604.25;5085707;28;20097;-67
2024/03/25 09:41:45;;;;;;;21.80;10.13;;;;;;;7.08;100.00;100597.50;5104863;27;20039;-66
2024/03/25 09:44:32;;;;;;;23.00;10.13;;;;;;;7.08;100.00;100594.78;5084036;28;20043;-69
2024/03/25 09:47:19;;;;;;;21.42;10.10;;;;;;;7.10;100.00;100589.13;5107570;27;20040;-67
2024/03/25 09:50:08;;;;;;;18.05;8.50;;;;;;;7.18;100.00;100588.69;5093401;27;20454;-66
2024/03/25 09:52:55;;;;;;;21.23;10.55;;;;;;;7.20;100.00;100584.66;5085728;28;20071;-67
2024/03/25 09:55:43;;;;;;;20.58;10.88;;;;;;;7.19;100.00;100577.63;5094735;28;20048;-67
2024/03/25 09:58:31;;;;;;;19.73;9.05;;;;;;;7.36;100.00;100584.84;5105530;27;20071;-66
2024/03/25 10:01:19;;;;;;;21.48;8.55;;;;;;;7.33;100.00;100574.50;5120324;27;20518;-67
2024/03/25 10:04:06;;;;;;;22.50;9.48;;;;;;;7.29;100.00;100573.38;5092421;27;20059;-66
2024/03/25 10:06:53;;;;;;;17.77;8.07;;;;;;;7.34;100.00;100565.34;5091747;27;20058;-67
2024/03/25 10:09:40;;;;;;;19.92;9.43;;;;;;;7.34;100.00;100562.63;5120653;27;20438;-66
2024/03/25 10:12:28;;;;;;;19.88;6.93;;;;;;;7.44;100.00;100562.72;5106937;27;20039;-66
2024/03/25 10:15:18;;;;;;;18.23;8.18;;;;;;;7.47;100.00;100552.19;5125089;27;20074;-65
2024/03/25 10:18:05;;;;;;;22.65;9.38;;;;;;;7.50;100.00;100555.47;5112971;27;20051;-67
2024/03/25 10:20:53;;;;;;;18.48;8.38;;;;;;;7.56;100.00;100549.84;5112258;28;20050;-65
2024/03/25 10:23:43;;;;;;;21.33;9.93;;;;;;;7.57;100.00;100551.47;5094898;27;20451;-65
2024/03/25 10:26:31;;;;;;;21.90;8.88;;;;;;;7.58;100.00;100550.41;5098164;28;20052;-64
2024/03/25 10:29:18;;;;;;;19.23;9.07;;;;;;;7.59;100.00;100543.91;5088696;28;20055;-64
2024/03/25 10:32:05;;;;;;;21.73;10.05;;;;;;;7.62;100.00;100540.69;5098059;28;20082;-65
2024/03/25 10:34:53;;;;;;;19.38;9.55;;;;;;;7.65;100.00;100542.91;5090034;28;20046;-66
2024/03/25 10:37:40;;;;;;;21.35;10.10;;;;;;;7.72;100.00;100536.44;5069821;28;20044;-66
2024/03/25 10:40:32;;;;;;;19.42;8.18;;;;;;;7.90;100.00;100538.81;5086278;28;20101;-68
2024/03/25 10:43:22;;;;;;;22.10;8.85;;;;;;;7.90;100.00;100523.34;5099382;28;20221;-68
2024/03/25 10:46:09;;;;;;;17.25;7.47;;;;;;;7.95;100.00;100519.84;5089819;28;20100;-66
2024/03/25 10:49:12;;;;;;;19.55;8.55;;;;;;;8.03;100.00;100524.81;5083743;27;20039;-66
2024/03/25 10:52:00;;;;;;;15.07;6.78;;;;;;;8.11;100.00;100523.53;5084263;28;20044;-67
2024/03/25 10:54:48;;;;;;;15.88;6.45;;;;;;;8.22;100.00;100518.97;5075132;28;20059;-68
2024/03/25 10:57:35;;;;;;;17.13;6.50;;;;;;;8.27;100.00;100511.72;5097011;28;20130;-67
2024/03/25 11:00:23;;;;;;;20.63;6.38;;;;;;;8.35;100.00;100515.03;5071064;28;20050;-66
2024/03/25 11:03:11;;;;;;;12.48;5.32;;;;;;;8.40;100.00;100509.66;5098735;28;20430;-66
2024/03/25 11:05:58;;;;;;;12.65;5.57;;;;;;;8.45;100.00;100515.13;5079353;28;20412;-67
2024/03/25 11:08:47;;;;;;;12.55;5.60;;;;;;;8.41;100.00;100509.38;5097852;28;20050;-67
2024/03/25 11:11:35;;;;;;;15.32;6.30;;;;;;;8.39;100.00;100502.53;5064662;28;20412;-67
2024/03/25 11:14:26;;;;;;;12.15;5.03;;;;;;;8.42;100.00;100513.75;5059455;28;20092;-67
2024/03/25 11:17:16;;;;;;;16.52;6.65;;;;;;;8.47;100.00;100505.63;5084426;28;20066;-67
2024/03/25 11:20:16;;;;;;;14.55;6.47;;;;;;;8.53;100.00;100503.75;5084074;28;20097;-65
2024/03/25 11:23:10;;;;;;;15.65;6.28;;;;;;;8.62;100.00;100493.22;5099141;28;20043;-67
2024/03/25 11:25:57;;;;;;;13.68;6.10;;;;;;;8.61;100.00;100488.84;5070765;28;20043;-67
2024/03/25 11:28:45;;;;;;;13.57;5.65;;;;;;;8.60;100.00;100492.66;5097832;28;20066;-68
2024/03/25 11:31:33;;;;;;;14.70;6.03;;;;;;;8.60;100.00;100487.25;5071089;28;20051;-67
2024/03/25 11:34:20;;;;;;;12.80;5.18;;;;;;;8.77;100.00;100487.88;5069903;28;20044;-68
2024/03/25 11:37:08;;;;;;;9.65;4.78;;;;;;;8.77;100.00;100481.63;5064266;28;20094;-67
2024/03/25 11:40:04;;;;;;;11.98;5.45;;;;;;;8.72;100.00;100474.25;5078459;28;20040;-67
2024/03/25 11:42:51;;;;;;;10.20;4.80;;;;;;;8.77;100.00;100466.13;5077247;28;20464;-67
2024/03/25 11:45:38;;;;;;;13.32;4.97;;;;;;;8.79;100.00;100472.13;5084571;28;20071;-67
2024/03/25 11:48:25;;;;;;;14.50;5.88;;;;;;;8.80;96.88;100472.94;5098045;28;20113;-66
2024/03/25 11:51:17;;;;;;;12.52;5.13;;;;;;;8.84;95.70;100463.19;5098635;28;20047;-67
2024/03/25 11:54:04;;;;;;;11.98;5.20;;;;;;;8.87;95.07;100460.75;5098888;28;20425;-66
2024/03/25 11:56:54;;;;;;;10.63;5.05;;;;;;;8.96;93.80;100464.59;5084072;28;20051;-67
2024/03/25 11:59:41;;;;;;;13.15;5.60;;;;;;;9.02;93.82;100460.00;5098001;28;20048;-66
2024/03/25 12:02:28;;;;;;;11.25;5.32;;;;;;;9.02;93.05;100457.28;5068054;28;20093;-67
2024/03/25 12:05:15;;;;;;;14.93;6.40;;;;;;;9.00;94.68;100448.59;5084551;28;20071;-69
2024/03/25 12:08:02;;;;;;;13.48;5.53;;;;;;;9.04;90.14;100443.41;5065081;28;20040;-67
2024/03/25 12:13:55;;;;;;;13.05;5.32;;;;;;;9.07;92.29;100427.41;5096590;28;20075;-68
2024/03/25 12:16:42;;;;;;;12.40;5.82;;;;;;;9.03;91.55;100411.91;5063557;28;20048;-67
2024/03/25 12:19:30;;;;;;;12.93;5.18;;;;;;;8.95;89.15;100408.63;5075103;28;20078;-68
2024/03/25 12:22:17;;;;;;;13.57;5.80;;;;;;;8.97;89.22;100402.91;5083168;28;20100;-67
2024/03/25 12:25:06;;;;;;;11.13;5.20;;;;;;;9.04;85.73;100397.22;5032626;28;20041;-67
2024/03/25 12:27:53;;;;;;;11.02;4.85;;;;;;;9.12;86.31;100386.66;5062611;28;20043;-67
2024/03/25 12:30:58;;;;;;;12.50;5.30;;;;;;;9.18;86.43;100382.03;5075755;28;20048;-67
2024/03/25 12:33:45;;;;;;;11.63;5.78;;;;;;;9.21;85.15;100378.75;5078601;28;20071;-67
2024/03/25 12:36:36;;;;;;;10.63;4.70;;;;;;;9.27;86.75;100383.13;5077046;28;20075;-68
2024/03/25 12:39:23;;;;;;;13.43;5.72;;;;;;;9.33;86.27;100376.63;5062937;28;20040;-66
2024/03/25 12:42:10;;;;;;;13.77;5.35;;;;;;;9.36;84.97;100376.06;5063229;28;20048;-67
2024/03/25 12:44:57;;;;;;;13.63;5.53;;;;;;;9.42;82.39;100387.75;5063093;28;20454;-67
2024/03/25 12:47:44;;;;;;;9.77;4.22;;;;;;;9.54;92.66;100382.06;5077138;28;20044;-67
2024/03/25 12:50:31;;;;;;;13.10;5.25;;;;;;;9.51;84.21;100372.53;5077449;28;20134;-66
2024/03/25 12:53:19;;;;;;;12.60;5.10;;;;;;;9.50;82.48;100370.09;5069614;28;20063;-67
2024/03/25 12:56:06;;;;;;;10.75;5.32;;;;;;;9.50;77.46;100370.09;5082529;28;20097;-68